sensor_id;sensor_type;location;lat;lon;timestamp;P1;durP1;ratioP1;P2;durP2;ratioP2
2824;SDS011;1420;51.324;12.344;2023-03-12T00:01:47;630.60;;;596.20;;
2824;SDS011;1420;51.324;12.344;2023-03-12T00:04:15;634.97;;;600.05;;
2824;SDS011;1420;51.324;12.344;2023-03-12T00:06:42;617.78;;;584.58;;
2824;SDS011;1420;51.324;12.344;2023-03-12T00:09:09;621.38;;;588.23;;
2824;SDS011;1420;51.324;12.344;2023-03-12T00:11:36;641.50;;;606.92;;
2824;SDS011;1420;51.324;12.344;2023-03-12T00:14:03;650.78;;;615.22;;
2824;SDS011;1420;51.324;12.344;2023-03-12T00:16:31;636.35;;;601.35;;
2824;SDS011;1420;51.324;12.344;2023-03-12T00:18:59;638.65;;;604.12;;
2824;SDS011;1420;51.324;12.344;2023-03-12T00:21:26;670.45;;;633.30;;
2824;SDS011;1420;51.324;12.344;2023-03-12T00:23:54;648.73;;;613.70;;
2824;SDS011;1420;51.324;12.344;2023-03-12T00:26:21;644.53;;;609.48;;
2824;SDS011;1420;51.324;12.344;2023-03-12T00:28:49;648.00;;;613.17;;
2824;SDS011;1420;51.324;12.344;2023-03-12T00:31:21;618.67;;;585.33;;
2824;SDS011;1420;51.324;12.344;2023-03-12T00:33:47;626.80;;;593.15;;
2824;SDS011;1420;51.324;12.344;2023-03-12T00:36:15;649.00;;;612.85;;
2824;SDS011;1420;51.324;12.344;2023-03-12T00:38:42;704.25;;;663.77;;
2824;SDS011;1420;51.324;12.344;2023-03-12T00:41:10;693.82;;;654.97;;
2824;SDS011;1420;51.324;12.344;2023-03-12T00:43:38;648.43;;;612.68;;
2824;SDS011;1420;51.324;12.344;2023-03-12T00:46:05;654.30;;;618.67;;
2824;SDS011;1420;51.324;12.344;2023-03-12T00:48:32;701.10;;;661.23;;
2824;SDS011;1420;51.324;12.344;2023-03-12T00:50:59;668.60;;;631.35;;
2824;SDS011;1420;51.324;12.344;2023-03-12T00:53:27;691.98;;;653.35;;
2824;SDS011;1420;51.324;12.344;2023-03-12T00:55:55;684.75;;;646.05;;
2824;SDS011;1420;51.324;12.344;2023-03-12T00:58:23;691.82;;;652.62;;
2824;SDS011;1420;51.324;12.344;2023-03-12T01:00:50;700.18;;;661.00;;
2824;SDS011;1420;51.324;12.344;2023-03-12T01:03:21;718.13;;;676.97;;
2824;SDS011;1420;51.324;12.344;2023-03-12T01:05:49;710.48;;;669.78;;
2824;SDS011;1420;51.324;12.344;2023-03-12T01:08:23;704.37;;;663.73;;
2824;SDS011;1420;51.324;12.344;2023-03-12T01:10:50;716.00;;;675.92;;
2824;SDS011;1420;51.324;12.344;2023-03-12T01:13:17;701.27;;;661.97;;
2824;SDS011;1420;51.324;12.344;2023-03-12T01:15:45;701.63;;;660.87;;
2824;SDS011;1420;51.324;12.344;2023-03-12T01:18:12;699.95;;;659.22;;
2824;SDS011;1420;51.324;12.344;2023-03-12T01:20:39;709.73;;;669.08;;
2824;SDS011;1420;51.324;12.344;2023-03-12T01:23:06;733.37;;;691.88;;
2824;SDS011;1420;51.324;12.344;2023-03-12T01:25:34;709.20;;;669.22;;
2824;SDS011;1420;51.324;12.344;2023-03-12T01:28:01;696.88;;;656.98;;
2824;SDS011;1420;51.324;12.344;2023-03-12T01:30:28;673.43;;;635.63;;
2824;SDS011;1420;51.324;12.344;2023-03-12T01:32:55;692.75;;;653.83;;
2824;SDS011;1420;51.324;12.344;2023-03-12T01:35:23;668.93;;;631.22;;
2824;SDS011;1420;51.324;12.344;2023-03-12T01:37:51;659.32;;;622.92;;
2824;SDS011;1420;51.324;12.344;2023-03-12T01:40:19;649.62;;;613.88;;
2824;SDS011;1420;51.324;12.344;2023-03-12T01:42:52;661.25;;;625.10;;
2824;SDS011;1420;51.324;12.344;2023-03-12T01:47:58;716.13;;;675.58;;
2824;SDS011;1420;51.324;12.344;2023-03-12T01:50:25;714.52;;;674.73;;
2824;SDS011;1420;51.324;12.344;2023-03-12T01:52:52;703.58;;;664.43;;
2824;SDS011;1420;51.324;12.344;2023-03-12T01:55:19;690.40;;;651.45;;
2824;SDS011;1420;51.324;12.344;2023-03-12T01:57:48;676.72;;;639.10;;
2824;SDS011;1420;51.324;12.344;2023-03-12T02:00:16;669.85;;;632.15;;
2824;SDS011;1420;51.324;12.344;2023-03-12T02:02:42;704.78;;;664.40;;
2824;SDS011;1420;51.324;12.344;2023-03-12T02:05:16;693.17;;;654.17;;
2824;SDS011;1420;51.324;12.344;2023-03-12T02:08:01;724.38;;;681.07;;
2824;SDS011;1420;51.324;12.344;2023-03-12T02:10:28;709.98;;;669.67;;
2824;SDS011;1420;51.324;12.344;2023-03-12T02:12:55;696.23;;;657.67;;
2824;SDS011;1420;51.324;12.344;2023-03-12T02:15:22;705.13;;;665.90;;
2824;SDS011;1420;51.324;12.344;2023-03-12T02:17:50;691.88;;;653.32;;
2824;SDS011;1420;51.324;12.344;2023-03-12T02:20:19;696.47;;;657.38;;
2824;SDS011;1420;51.324;12.344;2023-03-12T02:22:50;716.10;;;674.90;;
2824;SDS011;1420;51.324;12.344;2023-03-12T02:25:20;729.23;;;687.25;;
2824;SDS011;1420;51.324;12.344;2023-03-12T02:27:47;713.33;;;673.10;;
2824;SDS011;1420;51.324;12.344;2023-03-12T02:30:14;719.37;;;677.90;;
2824;SDS011;1420;51.324;12.344;2023-03-12T02:32:41;719.67;;;678.73;;
2824;SDS011;1420;51.324;12.344;2023-03-12T02:35:09;742.97;;;700.13;;
2824;SDS011;1420;51.324;12.344;2023-03-12T02:37:45;699.28;;;659.22;;
2824;SDS011;1420;51.324;12.344;2023-03-12T02:40:12;723.43;;;682.02;;
2824;SDS011;1420;51.324;12.344;2023-03-12T02:42:42;678.23;;;640.23;;
2824;SDS011;1420;51.324;12.344;2023-03-12T02:45:09;694.07;;;655.77;;
2824;SDS011;1420;51.324;12.344;2023-03-12T02:47:36;692.20;;;652.90;;
2824;SDS011;1420;51.324;12.344;2023-03-12T02:50:04;730.77;;;689.83;;
2824;SDS011;1420;51.324;12.344;2023-03-12T02:52:32;726.33;;;685.07;;
2824;SDS011;1420;51.324;12.344;2023-03-12T02:54:59;687.78;;;649.38;;
2824;SDS011;1420;51.324;12.344;2023-03-12T02:57:26;697.13;;;658.20;;
2824;SDS011;1420;51.324;12.344;2023-03-12T02:59:54;713.52;;;673.40;;
2824;SDS011;1420;51.324;12.344;2023-03-12T03:02:22;717.37;;;676.35;;
2824;SDS011;1420;51.324;12.344;2023-03-12T03:04:49;671.32;;;634.07;;
2824;SDS011;1420;51.324;12.344;2023-03-12T03:07:16;721.12;;;680.78;;
2824;SDS011;1420;51.324;12.344;2023-03-12T03:09:43;737.87;;;696.25;;
2824;SDS011;1420;51.324;12.344;2023-03-12T03:12:10;716.53;;;675.80;;
2824;SDS011;1420;51.324;12.344;2023-03-12T03:14:38;701.32;;;661.77;;
2824;SDS011;1420;51.324;12.344;2023-03-12T03:17:05;719.95;;;679.32;;
2824;SDS011;1420;51.324;12.344;2023-03-12T03:19:33;717.30;;;676.12;;
2824;SDS011;1420;51.324;12.344;2023-03-12T03:22:00;727.93;;;686.53;;
2824;SDS011;1420;51.324;12.344;2023-03-12T03:24:27;709.50;;;669.32;;
2824;SDS011;1420;51.324;12.344;2023-03-12T03:26:55;746.22;;;703.52;;
2824;SDS011;1420;51.324;12.344;2023-03-12T03:29:22;723.87;;;682.37;;
2824;SDS011;1420;51.324;12.344;2023-03-12T03:31:49;709.92;;;668.63;;
2824;SDS011;1420;51.324;12.344;2023-03-12T03:34:16;734.87;;;693.28;;
2824;SDS011;1420;51.324;12.344;2023-03-12T03:36:44;792.02;;;745.07;;
2824;SDS011;1420;51.324;12.344;2023-03-12T03:39:12;780.98;;;734.73;;
2824;SDS011;1420;51.324;12.344;2023-03-12T03:41:40;751.03;;;707.42;;
2824;SDS011;1420;51.324;12.344;2023-03-12T03:44:07;746.75;;;702.93;;
2824;SDS011;1420;51.324;12.344;2023-03-12T03:46:34;746.43;;;702.80;;
2824;SDS011;1420;51.324;12.344;2023-03-12T03:49:02;722.08;;;680.70;;
2824;SDS011;1420;51.324;12.344;2023-03-12T03:51:29;732.97;;;691.85;;
2824;SDS011;1420;51.324;12.344;2023-03-12T03:53:57;714.18;;;674.33;;
2824;SDS011;1420;51.324;12.344;2023-03-12T03:56:24;734.65;;;692.90;;
2824;SDS011;1420;51.324;12.344;2023-03-12T03:58:52;734.02;;;692.38;;
2824;SDS011;1420;51.324;12.344;2023-03-12T04:01:19;730.10;;;688.17;;
2824;SDS011;1420;51.324;12.344;2023-03-12T04:03:46;721.38;;;681.08;;
2824;SDS011;1420;51.324;12.344;2023-03-12T04:06:14;731.57;;;689.45;;
2824;SDS011;1420;51.324;12.344;2023-03-12T04:08:42;718.30;;;677.67;;
2824;SDS011;1420;51.324;12.344;2023-03-12T04:11:11;687.42;;;649.37;;
2824;SDS011;1420;51.324;12.344;2023-03-12T04:13:37;739.02;;;697.02;;
2824;SDS011;1420;51.324;12.344;2023-03-12T04:16:05;770.02;;;724.12;;
2824;SDS011;1420;51.324;12.344;2023-03-12T04:18:32;682.87;;;645.12;;
2824;SDS011;1420;51.324;12.344;2023-03-12T04:21:00;676.95;;;639.38;;
2824;SDS011;1420;51.324;12.344;2023-03-12T04:23:27;668.15;;;630.42;;
2824;SDS011;1420;51.324;12.344;2023-03-12T04:25:55;782.92;;;733.88;;
2824;SDS011;1420;51.324;12.344;2023-03-12T04:28:22;697.77;;;657.92;;
2824;SDS011;1420;51.324;12.344;2023-03-12T04:30:55;737.40;;;692.17;;
2824;SDS011;1420;51.324;12.344;2023-03-12T04:33:21;673.62;;;636.23;;
2824;SDS011;1420;51.324;12.344;2023-03-12T04:35:51;695.25;;;656.62;;
2824;SDS011;1420;51.324;12.344;2023-03-12T04:38:20;686.03;;;647.60;;
2824;SDS011;1420;51.324;12.344;2023-03-12T04:40:55;726.50;;;686.48;;
2824;SDS011;1420;51.324;12.344;2023-03-12T04:43:14;719.75;;;679.02;;
2824;SDS011;1420;51.324;12.344;2023-03-12T04:45:41;726.95;;;685.35;;
2824;SDS011;1420;51.324;12.344;2023-03-12T04:48:09;717.35;;;676.48;;
2824;SDS011;1420;51.324;12.344;2023-03-12T04:50:36;729.25;;;687.97;;
2824;SDS011;1420;51.324;12.344;2023-03-12T04:53:03;710.55;;;670.65;;
2824;SDS011;1420;51.324;12.344;2023-03-12T04:55:30;690.28;;;652.02;;
2824;SDS011;1420;51.324;12.344;2023-03-12T04:57:57;689.87;;;650.92;;
2824;SDS011;1420;51.324;12.344;2023-03-12T05:00:25;718.22;;;677.37;;
2824;SDS011;1420;51.324;12.344;2023-03-12T05:02:53;683.90;;;645.47;;
2824;SDS011;1420;51.324;12.344;2023-03-12T05:05:20;726.83;;;685.25;;
2824;SDS011;1420;51.324;12.344;2023-03-12T05:07:47;729.80;;;687.28;;
2824;SDS011;1420;51.324;12.344;2023-03-12T05:10:14;752.88;;;709.37;;
2824;SDS011;1420;51.324;12.344;2023-03-12T05:12:42;710.28;;;669.63;;
2824;SDS011;1420;51.324;12.344;2023-03-12T05:15:09;724.90;;;682.50;;
2824;SDS011;1420;51.324;12.344;2023-03-12T05:17:36;718.88;;;677.08;;
2824;SDS011;1420;51.324;12.344;2023-03-12T05:20:03;713.37;;;673.42;;
2824;SDS011;1420;51.324;12.344;2023-03-12T05:22:31;709.83;;;668.30;;
2824;SDS011;1420;51.324;12.344;2023-03-12T05:24:58;710.65;;;669.37;;
2824;SDS011;1420;51.324;12.344;2023-03-12T05:27:26;759.00;;;714.48;;
2824;SDS011;1420;51.324;12.344;2023-03-12T05:29:54;705.35;;;664.23;;
2824;SDS011;1420;51.324;12.344;2023-03-12T05:32:22;707.30;;;666.40;;
2824;SDS011;1420;51.324;12.344;2023-03-12T05:34:49;750.98;;;707.33;;
2824;SDS011;1420;51.324;12.344;2023-03-12T05:37:16;729.00;;;688.28;;
2824;SDS011;1420;51.324;12.344;2023-03-12T05:39:43;695.95;;;655.92;;
2824;SDS011;1420;51.324;12.344;2023-03-12T05:42:13;698.07;;;658.85;;
2824;SDS011;1420;51.324;12.344;2023-03-12T05:44:40;764.92;;;720.72;;
2824;SDS011;1420;51.324;12.344;2023-03-12T05:47:07;663.00;;;625.85;;
2824;SDS011;1420;51.324;12.344;2023-03-12T05:49:35;684.03;;;646.57;;
2824;SDS011;1420;51.324;12.344;2023-03-12T05:52:02;665.02;;;627.93;;
2824;SDS011;1420;51.324;12.344;2023-03-12T05:54:29;681.57;;;642.23;;
2824;SDS011;1420;51.324;12.344;2023-03-12T05:56:57;667.92;;;630.17;;
2824;SDS011;1420;51.324;12.344;2023-03-12T05:59:24;679.38;;;640.47;;
2824;SDS011;1420;51.324;12.344;2023-03-12T06:01:51;643.30;;;606.95;;
2824;SDS011;1420;51.324;12.344;2023-03-12T06:04:18;598.05;;;563.98;;
2824;SDS011;1420;51.324;12.344;2023-03-12T06:06:46;629.10;;;594.47;;
2824;SDS011;1420;51.324;12.344;2023-03-12T06:09:13;711.12;;;663.88;;
2824;SDS011;1420;51.324;12.344;2023-03-12T06:11:40;597.75;;;564.27;;
2824;SDS011;1420;51.324;12.344;2023-03-12T06:14:07;579.63;;;547.28;;
2824;SDS011;1420;51.324;12.344;2023-03-12T06:16:35;512.92;;;485.08;;
2824;SDS011;1420;51.324;12.344;2023-03-12T06:19:02;589.30;;;557.32;;
2824;SDS011;1420;51.324;12.344;2023-03-12T06:21:30;554.62;;;521.75;;
2824;SDS011;1420;51.324;12.344;2023-03-12T06:23:56;504.33;;;478.40;;
2824;SDS011;1420;51.324;12.344;2023-03-12T06:26:24;366.58;;;347.55;;
2824;SDS011;1420;51.324;12.344;2023-03-12T06:28:51;214.00;;;200.60;;
2824;SDS011;1420;51.324;12.344;2023-03-12T06:31:18;157.80;;;147.68;;
2824;SDS011;1420;51.324;12.344;2023-03-12T06:33:45;82.70;;;74.83;;
2824;SDS011;1420;51.324;12.344;2023-03-12T06:36:13;44.35;;;23.30;;
2824;SDS011;1420;51.324;12.344;2023-03-12T06:38:40;43.40;;;19.02;;
2824;SDS011;1420;51.324;12.344;2023-03-12T06:41:10;44.85;;;19.60;;
2824;SDS011;1420;51.324;12.344;2023-03-12T06:43:37;62.57;;;50.82;;
2824;SDS011;1420;51.324;12.344;2023-03-12T06:46:04;84.17;;;76.62;;
2824;SDS011;1420;51.324;12.344;2023-03-12T06:48:31;138.15;;;128.52;;
2824;SDS011;1420;51.324;12.344;2023-03-12T06:51:00;154.72;;;144.30;;
2824;SDS011;1420;51.324;12.344;2023-03-12T06:53:27;140.68;;;131.02;;
2824;SDS011;1420;51.324;12.344;2023-03-12T06:55:54;140.55;;;130.78;;
2824;SDS011;1420;51.324;12.344;2023-03-12T06:58:21;135.02;;;125.40;;
2824;SDS011;1420;51.324;12.344;2023-03-12T07:00:49;121.52;;;112.70;;
2824;SDS011;1420;51.324;12.344;2023-03-12T07:03:16;130.78;;;121.03;;
2824;SDS011;1420;51.324;12.344;2023-03-12T07:05:44;166.00;;;155.20;;
2824;SDS011;1420;51.324;12.344;2023-03-12T07:08:11;169.33;;;158.43;;
2824;SDS011;1420;51.324;12.344;2023-03-12T07:10:38;435.53;;;414.03;;
2824;SDS011;1420;51.324;12.344;2023-03-12T07:13:05;255.70;;;241.85;;
2824;SDS011;1420;51.324;12.344;2023-03-12T07:15:33;237.78;;;224.52;;
2824;SDS011;1420;51.324;12.344;2023-03-12T07:18:00;196.90;;;184.70;;
2824;SDS011;1420;51.324;12.344;2023-03-12T07:20:31;128.95;;;119.57;;
2824;SDS011;1420;51.324;12.344;2023-03-12T07:22:59;117.45;;;108.60;;
2824;SDS011;1420;51.324;12.344;2023-03-12T07:25:26;94.03;;;85.97;;
2824;SDS011;1420;51.324;12.344;2023-03-12T07:27:53;78.53;;;71.02;;
2824;SDS011;1420;51.324;12.344;2023-03-12T07:30:21;112.92;;;103.92;;
2824;SDS011;1420;51.324;12.344;2023-03-12T07:32:48;99.75;;;91.90;;
2824;SDS011;1420;51.324;12.344;2023-03-12T07:35:15;154.08;;;143.83;;
2824;SDS011;1420;51.324;12.344;2023-03-12T07:37:42;150.60;;;140.97;;
2824;SDS011;1420;51.324;12.344;2023-03-12T07:40:10;157.77;;;148.03;;
2824;SDS011;1420;51.324;12.344;2023-03-12T07:42:37;162.87;;;152.53;;
2824;SDS011;1420;51.324;12.344;2023-03-12T07:45:05;180.40;;;169.78;;
2824;SDS011;1420;51.324;12.344;2023-03-12T07:47:35;225.22;;;212.70;;
2824;SDS011;1420;51.324;12.344;2023-03-12T07:50:03;253.45;;;239.97;;
2824;SDS011;1420;51.324;12.344;2023-03-12T07:52:30;246.78;;;233.52;;
2824;SDS011;1420;51.324;12.344;2023-03-12T07:54:58;305.75;;;289.38;;
2824;SDS011;1420;51.324;12.344;2023-03-12T07:57:25;338.43;;;321.22;;
2824;SDS011;1420;51.324;12.344;2023-03-12T07:59:52;420.42;;;399.23;;
2824;SDS011;1420;51.324;12.344;2023-03-12T08:02:20;400.93;;;380.80;;
2824;SDS011;1420;51.324;12.344;2023-03-12T08:04:47;332.43;;;315.73;;
2824;SDS011;1420;51.324;12.344;2023-03-12T08:07:14;312.08;;;295.90;;
2824;SDS011;1420;51.324;12.344;2023-03-12T08:09:42;271.10;;;256.43;;
2824;SDS011;1420;51.324;12.344;2023-03-12T08:12:09;378.02;;;358.88;;
2824;SDS011;1420;51.324;12.344;2023-03-12T08:14:36;414.55;;;394.17;;
2824;SDS011;1420;51.324;12.344;2023-03-12T08:17:03;400.05;;;380.50;;
2824;SDS011;1420;51.324;12.344;2023-03-12T08:19:31;384.72;;;365.82;;
2824;SDS011;1420;51.324;12.344;2023-03-12T08:21:58;383.25;;;364.50;;
2824;SDS011;1420;51.324;12.344;2023-03-12T08:24:26;383.47;;;363.95;;
2824;SDS011;1420;51.324;12.344;2023-03-12T08:26:53;400.53;;;380.85;;
2824;SDS011;1420;51.324;12.344;2023-03-12T08:29:20;394.35;;;374.95;;
2824;SDS011;1420;51.324;12.344;2023-03-12T08:31:48;398.22;;;378.13;;
2824;SDS011;1420;51.324;12.344;2023-03-12T08:34:15;401.45;;;381.33;;
2824;SDS011;1420;51.324;12.344;2023-03-12T08:36:42;365.52;;;346.93;;
2824;SDS011;1420;51.324;12.344;2023-03-12T08:39:09;379.33;;;360.35;;
2824;SDS011;1420;51.324;12.344;2023-03-12T08:41:36;386.80;;;367.12;;
2824;SDS011;1420;51.324;12.344;2023-03-12T08:44:05;364.53;;;346.10;;
2824;SDS011;1420;51.324;12.344;2023-03-12T08:46:32;360.85;;;342.80;;
2824;SDS011;1420;51.324;12.344;2023-03-12T08:48:59;325.77;;;309.30;;
2824;SDS011;1420;51.324;12.344;2023-03-12T08:51:26;286.67;;;271.25;;
2824;SDS011;1420;51.324;12.344;2023-03-12T08:53:54;258.87;;;244.92;;
2824;SDS011;1420;51.324;12.344;2023-03-12T08:56:21;325.87;;;309.33;;
2824;SDS011;1420;51.324;12.344;2023-03-12T08:58:48;427.68;;;405.57;;
2824;SDS011;1420;51.324;12.344;2023-03-12T09:01:15;429.07;;;407.85;;
2824;SDS011;1420;51.324;12.344;2023-03-12T09:03:42;379.25;;;360.38;;
2824;SDS011;1420;51.324;12.344;2023-03-12T09:06:11;382.80;;;363.55;;
2824;SDS011;1420;51.324;12.344;2023-03-12T09:08:39;369.70;;;350.67;;
2824;SDS011;1420;51.324;12.344;2023-03-12T09:11:07;329.40;;;312.47;;
2824;SDS011;1420;51.324;12.344;2023-03-12T09:13:33;355.02;;;336.92;;
2824;SDS011;1420;51.324;12.344;2023-03-12T09:16:01;355.53;;;337.38;;
2824;SDS011;1420;51.324;12.344;2023-03-12T09:18:28;357.23;;;338.55;;
2824;SDS011;1420;51.324;12.344;2023-03-12T09:20:55;391.30;;;371.65;;
2824;SDS011;1420;51.324;12.344;2023-03-12T09:23:23;353.60;;;335.48;;
2824;SDS011;1420;51.324;12.344;2023-03-12T09:25:50;378.15;;;359.38;;
2824;SDS011;1420;51.324;12.344;2023-03-12T09:28:17;377.75;;;358.27;;
2824;SDS011;1420;51.324;12.344;2023-03-12T09:30:44;362.08;;;343.22;;
2824;SDS011;1420;51.324;12.344;2023-03-12T09:33:11;435.92;;;413.87;;
2824;SDS011;1420;51.324;12.344;2023-03-12T09:35:38;503.80;;;477.87;;
2824;SDS011;1420;51.324;12.344;2023-03-12T09:38:06;529.87;;;501.73;;
2824;SDS011;1420;51.324;12.344;2023-03-12T09:40:35;464.43;;;440.02;;
2824;SDS011;1420;51.324;12.344;2023-03-12T09:43:03;429.23;;;406.97;;
2824;SDS011;1420;51.324;12.344;2023-03-12T09:45:32;373.72;;;354.42;;
2824;SDS011;1420;51.324;12.344;2023-03-12T09:47:59;438.97;;;416.82;;
2824;SDS011;1420;51.324;12.344;2023-03-12T09:50:29;342.05;;;324.35;;
2824;SDS011;1420;51.324;12.344;2023-03-12T09:53:00;421.57;;;399.68;;
2824;SDS011;1420;51.324;12.344;2023-03-12T09:55:27;358.53;;;340.00;;
2824;SDS011;1420;51.324;12.344;2023-03-12T09:57:55;361.82;;;343.48;;
2824;SDS011;1420;51.324;12.344;2023-03-12T10:00:23;351.40;;;333.12;;
2824;SDS011;1420;51.324;12.344;2023-03-12T10:02:52;365.82;;;346.82;;
2824;SDS011;1420;51.324;12.344;2023-03-12T10:05:44;435.57;;;412.50;;
2824;SDS011;1420;51.324;12.344;2023-03-12T10:08:19;441.32;;;418.83;;
2824;SDS011;1420;51.324;12.344;2023-03-12T10:10:48;558.92;;;529.72;;
2824;SDS011;1420;51.324;12.344;2023-03-12T10:13:23;532.97;;;504.80;;
2824;SDS011;1420;51.324;12.344;2023-03-12T10:21:34;552.22;;;523.47;;
2824;SDS011;1420;51.324;12.344;2023-03-12T10:24:06;539.20;;;511.20;;
2824;SDS011;1420;51.324;12.344;2023-03-12T10:26:35;699.77;;;659.20;;
2824;SDS011;1420;51.324;12.344;2023-03-12T10:29:04;627.27;;;593.82;;
2824;SDS011;1420;51.324;12.344;2023-03-12T10:31:31;591.45;;;560.48;;
2824;SDS011;1420;51.324;12.344;2023-03-12T10:33:58;608.87;;;576.67;;
2824;SDS011;1420;51.324;12.344;2023-03-12T10:36:31;604.45;;;572.88;;
2824;SDS011;1420;51.324;12.344;2023-03-12T10:38:55;549.25;;;520.68;;
2824;SDS011;1420;51.324;12.344;2023-03-12T10:41:23;557.72;;;528.72;;
2824;SDS011;1420;51.324;12.344;2023-03-12T10:43:49;450.45;;;427.40;;
2824;SDS011;1420;51.324;12.344;2023-03-12T10:51:53;515.30;;;488.25;;
2824;SDS011;1420;51.324;12.344;2023-03-12T10:54:29;541.80;;;513.52;;
2824;SDS011;1420;51.324;12.344;2023-03-12T10:56:55;495.48;;;470.07;;
2824;SDS011;1420;51.324;12.344;2023-03-12T10:59:24;710.12;;;659.85;;
2824;SDS011;1420;51.324;12.344;2023-03-12T11:01:53;494.85;;;468.25;;
2824;SDS011;1420;51.324;12.344;2023-03-12T11:04:22;431.77;;;408.98;;
2824;SDS011;1420;51.324;12.344;2023-03-12T11:09:29;413.03;;;391.78;;
2824;SDS011;1420;51.324;12.344;2023-03-12T11:11:56;406.85;;;386.13;;
2824;SDS011;1420;51.324;12.344;2023-03-12T11:14:25;340.98;;;323.23;;
2824;SDS011;1420;51.324;12.344;2023-03-12T11:16:51;347.98;;;330.25;;
2824;SDS011;1420;51.324;12.344;2023-03-12T11:21:54;390.22;;;370.78;;
2824;SDS011;1420;51.324;12.344;2023-03-12T11:24:23;429.00;;;408.10;;
2824;SDS011;1420;51.324;12.344;2023-03-12T11:26:58;376.28;;;356.85;;
2824;SDS011;1420;51.324;12.344;2023-03-12T11:29:29;395.12;;;375.33;;
2824;SDS011;1420;51.324;12.344;2023-03-12T11:32:01;399.47;;;378.88;;
2824;SDS011;1420;51.324;12.344;2023-03-12T11:34:30;402.62;;;382.52;;
2824;SDS011;1420;51.324;12.344;2023-03-12T11:45:13;396.00;;;375.57;;
2824;SDS011;1420;51.324;12.344;2023-03-12T11:53:28;351.03;;;333.05;;
2824;SDS011;1420;51.324;12.344;2023-03-12T11:56:07;412.45;;;391.77;;
2824;SDS011;1420;51.324;12.344;2023-03-12T11:59:09;391.13;;;371.28;;
2824;SDS011;1420;51.324;12.344;2023-03-12T12:01:28;396.32;;;375.87;;
2824;SDS011;1420;51.324;12.344;2023-03-12T12:03:57;513.88;;;486.57;;
2824;SDS011;1420;51.324;12.344;2023-03-12T12:06:41;622.15;;;587.75;;
2824;SDS011;1420;51.324;12.344;2023-03-12T12:12:05;728.18;;;679.70;;
2824;SDS011;1420;51.324;12.344;2023-03-12T12:17:24;645.33;;;601.08;;
2824;SDS011;1420;51.324;12.344;2023-03-12T12:22:46;551.28;;;521.93;;
2824;SDS011;1420;51.324;12.344;2023-03-12T12:27:57;441.48;;;419.08;;
2824;SDS011;1420;51.324;12.344;2023-03-12T12:30:45;517.78;;;490.12;;
2824;SDS011;1420;51.324;12.344;2023-03-12T12:35:49;513.58;;;486.73;;
2824;SDS011;1420;51.324;12.344;2023-03-12T12:38:21;472.17;;;447.57;;
2824;SDS011;1420;51.324;12.344;2023-03-12T12:40:50;460.67;;;437.10;;
2824;SDS011;1420;51.324;12.344;2023-03-12T12:43:21;494.73;;;468.65;;
2824;SDS011;1420;51.324;12.344;2023-03-12T12:45:48;502.87;;;477.40;;
2824;SDS011;1420;51.324;12.344;2023-03-12T12:48:16;544.85;;;516.82;;
2824;SDS011;1420;51.324;12.344;2023-03-12T12:50:42;493.33;;;467.62;;
2824;SDS011;1420;51.324;12.344;2023-03-12T12:53:14;572.38;;;542.28;;
2824;SDS011;1420;51.324;12.344;2023-03-12T12:58:25;751.48;;;706.60;;
2824;SDS011;1420;51.324;12.344;2023-03-12T13:00:52;669.75;;;633.43;;
2824;SDS011;1420;51.324;12.344;2023-03-12T13:03:20;696.62;;;657.95;;
2824;SDS011;1420;51.324;12.344;2023-03-12T13:05:52;714.02;;;673.60;;
2824;SDS011;1420;51.324;12.344;2023-03-12T13:11:04;779.37;;;730.48;;
2824;SDS011;1420;51.324;12.344;2023-03-12T13:13:32;668.52;;;633.72;;
2824;SDS011;1420;51.324;12.344;2023-03-12T13:18:56;687.42;;;651.30;;
2824;SDS011;1420;51.324;12.344;2023-03-12T13:21:29;517.80;;;491.55;;
2824;SDS011;1420;51.324;12.344;2023-03-12T13:26:47;687.50;;;647.53;;
2824;SDS011;1420;51.324;12.344;2023-03-12T13:29:20;394.82;;;374.28;;
2824;SDS011;1420;51.324;12.344;2023-03-12T13:31:48;340.75;;;322.75;;
2824;SDS011;1420;51.324;12.344;2023-03-12T13:34:38;332.82;;;314.57;;
2824;SDS011;1420;51.324;12.344;2023-03-12T13:36:59;311.42;;;294.68;;
2824;SDS011;1420;51.324;12.344;2023-03-12T13:39:32;419.33;;;396.27;;
2824;SDS011;1420;51.324;12.344;2023-03-12T13:41:59;461.60;;;435.48;;
2824;SDS011;1420;51.324;12.344;2023-03-12T13:49:53;345.48;;;326.37;;
2824;SDS011;1420;51.324;12.344;2023-03-12T13:52:26;251.50;;;236.95;;
2824;SDS011;1420;51.324;12.344;2023-03-12T13:54:57;333.75;;;314.78;;
2824;SDS011;1420;51.324;12.344;2023-03-12T13:57:40;277.15;;;261.23;;
2824;SDS011;1420;51.324;12.344;2023-03-12T14:00:18;326.75;;;309.33;;
2824;SDS011;1420;51.324;12.344;2023-03-12T14:02:50;311.42;;;293.78;;
2824;SDS011;1420;51.324;12.344;2023-03-12T14:05:15;303.78;;;285.83;;
2824;SDS011;1420;51.324;12.344;2023-03-12T14:10:33;296.00;;;278.52;;
2824;SDS011;1420;51.324;12.344;2023-03-12T14:13:04;253.92;;;239.43;;
2824;SDS011;1420;51.324;12.344;2023-03-12T14:15:38;230.58;;;216.87;;
2824;SDS011;1420;51.324;12.344;2023-03-12T14:18:22;455.62;;;428.22;;
2824;SDS011;1420;51.324;12.344;2023-03-12T14:20:54;343.07;;;324.27;;
2824;SDS011;1420;51.324;12.344;2023-03-12T14:23:21;277.87;;;262.68;;
2824;SDS011;1420;51.324;12.344;2023-03-12T14:25:48;281.50;;;264.60;;
2824;SDS011;1420;51.324;12.344;2023-03-12T14:28:18;240.60;;;226.70;;
2824;SDS011;1420;51.324;12.344;2023-03-12T14:30:51;197.62;;;185.50;;
2824;SDS011;1420;51.324;12.344;2023-03-12T14:33:18;316.38;;;298.90;;
2824;SDS011;1420;51.324;12.344;2023-03-12T14:35:47;218.80;;;205.87;;
2824;SDS011;1420;51.324;12.344;2023-03-12T14:38:15;181.23;;;169.30;;
2824;SDS011;1420;51.324;12.344;2023-03-12T14:40:47;331.82;;;314.03;;
2824;SDS011;1420;51.324;12.344;2023-03-12T14:43:18;185.35;;;173.58;;
2824;SDS011;1420;51.324;12.344;2023-03-12T14:45:44;193.07;;;180.67;;
2824;SDS011;1420;51.324;12.344;2023-03-12T14:48:11;210.30;;;197.38;;
2824;SDS011;1420;51.324;12.344;2023-03-12T14:50:39;225.42;;;211.25;;
2824;SDS011;1420;51.324;12.344;2023-03-12T14:53:12;203.87;;;191.28;;
2824;SDS011;1420;51.324;12.344;2023-03-12T14:55:56;326.42;;;307.92;;
2824;SDS011;1420;51.324;12.344;2023-03-12T14:58:16;160.02;;;149.50;;
2824;SDS011;1420;51.324;12.344;2023-03-12T15:00:42;154.77;;;144.55;;
2824;SDS011;1420;51.324;12.344;2023-03-12T15:03:11;151.20;;;141.02;;
2824;SDS011;1420;51.324;12.344;2023-03-12T15:05:36;155.13;;;144.78;;
2824;SDS011;1420;51.324;12.344;2023-03-12T15:08:04;172.40;;;161.47;;
2824;SDS011;1420;51.324;12.344;2023-03-12T15:10:32;240.43;;;226.75;;
2824;SDS011;1420;51.324;12.344;2023-03-12T15:12:59;170.18;;;159.10;;
2824;SDS011;1420;51.324;12.344;2023-03-12T15:15:30;163.70;;;152.98;;
2824;SDS011;1420;51.324;12.344;2023-03-12T15:18:05;161.83;;;151.22;;
2824;SDS011;1420;51.324;12.344;2023-03-12T15:20:31;169.63;;;158.75;;
2824;SDS011;1420;51.324;12.344;2023-03-12T15:22:59;152.83;;;142.63;;